Main page
METAR-TAF:

METAR-TAF

Airports :

N'Djamena International Airport

N'Djamena, Chad

latitude: 12-08N, longitude: 015-02E, elevation: 295 m

Current weather observation

The report was made 26 minutes ago, at 08:00 UTC
Wind 7 kt from the East/Southeast, varying between East and South/Southeast
Temperature 31°C
Humidity 55%
Pressure 1011 hPa
Visibility: 7000 m

METAR: FTTJ 150800Z 12007KT 090V150 7000 NSC 31/21 Q1011 NOSIG

Time: 09:26 (08:26 UTC)

Forecast

The report was made 3 hours and 26 minutes ago, at 05:00 UTC
Forecast valid from 15 at 06 UTC to 16 at 12 UTC
Wind 6 kt from the South/Southwest
Visibility: 8000 m
Becoming
from 15 at 09 UTC to 15 at 11 UTC
Wind 10 kt from the West
Probability 40% :
Temporary
from 15 at 14 UTC to 15 at 18 UTC
Wind 18 kt from variable directions with gusts up to 40 kt
Visibility: 2000 m
thunderstorm, rain,

TAF: FTTJ 150500Z 1506/1612 20006KT 8000 NSC BECMG 1509/1511 26010KT PROB40 TEMPO 1514/1518 VRB18G40KT 2000 TSRA

Weather observations and forecasts of more than 4000 airports (METAR and TAF reports).

The available stations are represented by yellow and red dots on the map.

Hover mouse over dot to see the name of the station.

Then click to see weather observations and forecasts.

To change the map : click on the green buttons with a black cross to zoom in, on the green button with a dash to zoom out, or on the green arrows for adjacent maps.


METAR-TAF: